sensor_id;sensor_type;location;lat;lon;timestamp;temperature;humidity
7427;DHT22;3755;59.316;18.092;2023-12-20T00:00:13;1.10;99.90
7427;DHT22;3755;59.316;18.092;2023-12-20T00:02:40;1.10;99.90
7427;DHT22;3755;59.316;18.092;2023-12-20T00:05:13;1.10;99.90
7427;DHT22;3755;59.316;18.092;2023-12-20T00:07:41;1.10;99.90
7427;DHT22;3755;59.316;18.092;2023-12-20T00:10:09;1.10;99.90
7427;DHT22;3755;59.316;18.092;2023-12-20T00:12:38;1.00;99.90
7427;DHT22;3755;59.316;18.092;2023-12-20T00:15:12;1.00;99.90
7427;DHT22;3755;59.316;18.092;2023-12-20T00:17:40;1.00;99.90
7427;DHT22;3755;59.316;18.092;2023-12-20T00:20:07;1.00;99.90
7427;DHT22;3755;59.316;18.092;2023-12-20T00:22:34;1.00;99.90
7427;DHT22;3755;59.316;18.092;2023-12-20T00:25:03;0.90;99.90
7427;DHT22;3755;59.316;18.092;2023-12-20T00:27:44;0.90;99.90
7427;DHT22;3755;59.316;18.092;2023-12-20T00:30:14;0.90;99.90
7427;DHT22;3755;59.316;18.092;2023-12-20T00:32:45;0.90;99.90
7427;DHT22;3755;59.316;18.092;2023-12-20T00:35:17;0.90;99.90
7427;DHT22;3755;59.316;18.092;2023-12-20T00:37:44;0.90;99.90
7427;DHT22;3755;59.316;18.092;2023-12-20T00:40:11;0.90;99.90
7427;DHT22;3755;59.316;18.092;2023-12-20T00:42:40;0.90;99.90
7427;DHT22;3755;59.316;18.092;2023-12-20T00:45:09;0.90;99.90
7427;DHT22;3755;59.316;18.092;2023-12-20T00:47:39;0.80;99.90
7427;DHT22;3755;59.316;18.092;2023-12-20T00:50:09;0.90;99.90
7427;DHT22;3755;59.316;18.092;2023-12-20T00:52:39;0.80;99.90
7427;DHT22;3755;59.316;18.092;2023-12-20T00:55:07;0.80;99.90
7427;DHT22;3755;59.316;18.092;2023-12-20T00:57:36;0.80;99.90
7427;DHT22;3755;59.316;18.092;2023-12-20T01:00:10;0.80;99.90
7427;DHT22;3755;59.316;18.092;2023-12-20T01:02:52;0.70;99.90
7427;DHT22;3755;59.316;18.092;2023-12-20T01:05:20;0.70;99.90
7427;DHT22;3755;59.316;18.092;2023-12-20T01:07:48;0.60;99.90
7427;DHT22;3755;59.316;18.092;2023-12-20T01:10:15;0.60;99.90
7427;DHT22;3755;59.316;18.092;2023-12-20T01:12:43;0.60;99.90
7427;DHT22;3755;59.316;18.092;2023-12-20T01:15:10;0.60;99.90
7427;DHT22;3755;59.316;18.092;2023-12-20T01:17:38;0.60;99.90
7427;DHT22;3755;59.316;18.092;2023-12-20T01:20:08;0.00;99.90
7427;DHT22;3755;59.316;18.092;2023-12-20T01:22:36;0.60;99.90
7427;DHT22;3755;59.316;18.092;2023-12-20T01:25:03;0.60;99.90
7427;DHT22;3755;59.316;18.092;2023-12-20T01:27:31;0.60;99.90
7427;DHT22;3755;59.316;18.092;2023-12-20T01:29:58;0.60;99.90
7427;DHT22;3755;59.316;18.092;2023-12-20T01:32:26;0.70;99.90
7427;DHT22;3755;59.316;18.092;2023-12-20T01:34:54;0.60;99.90
7427;DHT22;3755;59.316;18.092;2023-12-20T01:37:22;0.60;99.90
7427;DHT22;3755;59.316;18.092;2023-12-20T01:39:51;0.50;99.90
7427;DHT22;3755;59.316;18.092;2023-12-20T01:42:18;0.40;99.90
7427;DHT22;3755;59.316;18.092;2023-12-20T01:44:45;0.40;99.90
7427;DHT22;3755;59.316;18.092;2023-12-20T01:47:13;0.30;99.90
7427;DHT22;3755;59.316;18.092;2023-12-20T01:49:40;0.30;99.90
7427;DHT22;3755;59.316;18.092;2023-12-20T01:52:08;0.20;99.90
7427;DHT22;3755;59.316;18.092;2023-12-20T01:54:37;0.30;99.90
7427;DHT22;3755;59.316;18.092;2023-12-20T01:57:06;0.30;99.90
7427;DHT22;3755;59.316;18.092;2023-12-20T01:59:34;0.30;99.90
7427;DHT22;3755;59.316;18.092;2023-12-20T02:02:03;0.30;99.90
7427;DHT22;3755;59.316;18.092;2023-12-20T02:04:30;0.30;99.90
7427;DHT22;3755;59.316;18.092;2023-12-20T02:06:59;0.20;99.90
7427;DHT22;3755;59.316;18.092;2023-12-20T02:09:27;0.20;99.90
7427;DHT22;3755;59.316;18.092;2023-12-20T02:11:56;0.20;99.90
7427;DHT22;3755;59.316;18.092;2023-12-20T02:14:23;0.20;99.90
7427;DHT22;3755;59.316;18.092;2023-12-20T02:16:50;0.20;99.90
7427;DHT22;3755;59.316;18.092;2023-12-20T02:19:20;0.10;99.90
7427;DHT22;3755;59.316;18.092;2023-12-20T02:21:48;0.20;99.90
7427;DHT22;3755;59.316;18.092;2023-12-20T02:24:16;0.10;99.90
7427;DHT22;3755;59.316;18.092;2023-12-20T02:26:43;0.10;99.90
7427;DHT22;3755;59.316;18.092;2023-12-20T02:29:10;0.10;99.90
7427;DHT22;3755;59.316;18.092;2023-12-20T02:31:37;0.10;99.90
7427;DHT22;3755;59.316;18.092;2023-12-20T02:34:04;0.10;99.90
7427;DHT22;3755;59.316;18.092;2023-12-20T02:36:31;0.30;99.90
7427;DHT22;3755;59.316;18.092;2023-12-20T02:39:01;0.40;99.90
7427;DHT22;3755;59.316;18.092;2023-12-20T02:41:28;0.20;99.90
7427;DHT22;3755;59.316;18.092;2023-12-20T02:43:55;0.20;99.90
7427;DHT22;3755;59.316;18.092;2023-12-20T02:46:23;0.20;99.90
7427;DHT22;3755;59.316;18.092;2023-12-20T02:48:50;0.30;99.90
7427;DHT22;3755;59.316;18.092;2023-12-20T02:51:17;0.30;99.90
7427;DHT22;3755;59.316;18.092;2023-12-20T02:53:45;0.30;99.90
7427;DHT22;3755;59.316;18.092;2023-12-20T02:56:13;0.20;99.90
7427;DHT22;3755;59.316;18.092;2023-12-20T02:58:41;0.20;99.90
7427;DHT22;3755;59.316;18.092;2023-12-20T03:01:08;0.20;99.90
7427;DHT22;3755;59.316;18.092;2023-12-20T03:03:36;0.20;99.90
7427;DHT22;3755;59.316;18.092;2023-12-20T03:06:03;0.30;99.90
7427;DHT22;3755;59.316;18.092;2023-12-20T03:08:30;0.20;99.90
7427;DHT22;3755;59.316;18.092;2023-12-20T03:10:58;0.20;99.90
7427;DHT22;3755;59.316;18.092;2023-12-20T03:13:27;0.20;99.90
7427;DHT22;3755;59.316;18.092;2023-12-20T03:15:54;0.20;99.90
7427;DHT22;3755;59.316;18.092;2023-12-20T03:18:21;0.20;99.90
7427;DHT22;3755;59.316;18.092;2023-12-20T03:20:49;0.30;99.90
7427;DHT22;3755;59.316;18.092;2023-12-20T03:23:16;0.30;99.90
7427;DHT22;3755;59.316;18.092;2023-12-20T03:25:43;0.30;99.90
7427;DHT22;3755;59.316;18.092;2023-12-20T03:28:10;0.30;99.90
7427;DHT22;3755;59.316;18.092;2023-12-20T03:30:39;0.40;99.90
7427;DHT22;3755;59.316;18.092;2023-12-20T03:33:06;0.30;99.90
7427;DHT22;3755;59.316;18.092;2023-12-20T03:35:34;0.30;99.90
7427;DHT22;3755;59.316;18.092;2023-12-20T03:38:02;0.20;99.90
7427;DHT22;3755;59.316;18.092;2023-12-20T03:40:29;0.20;99.90
7427;DHT22;3755;59.316;18.092;2023-12-20T03:42:56;0.20;99.90
7427;DHT22;3755;59.316;18.092;2023-12-20T03:45:23;0.20;99.90
7427;DHT22;3755;59.316;18.092;2023-12-20T03:47:51;0.20;99.90
7427;DHT22;3755;59.316;18.092;2023-12-20T03:50:21;0.20;99.90
7427;DHT22;3755;59.316;18.092;2023-12-20T03:52:48;0.20;99.90
7427;DHT22;3755;59.316;18.092;2023-12-20T03:55:15;0.30;99.90
7427;DHT22;3755;59.316;18.092;2023-12-20T03:57:45;0.30;99.90
7427;DHT22;3755;59.316;18.092;2023-12-20T04:00:13;0.20;99.90
7427;DHT22;3755;59.316;18.092;2023-12-20T04:02:41;0.20;99.90
7427;DHT22;3755;59.316;18.092;2023-12-20T04:05:10;0.20;99.90
7427;DHT22;3755;59.316;18.092;2023-12-20T04:07:45;0.20;99.90
7427;DHT22;3755;59.316;18.092;2023-12-20T04:10:12;0.30;99.90
7427;DHT22;3755;59.316;18.092;2023-12-20T04:12:39;0.30;99.90
7427;DHT22;3755;59.316;18.092;2023-12-20T04:15:07;0.40;99.90
7427;DHT22;3755;59.316;18.092;2023-12-20T04:17:37;0.40;99.90
7427;DHT22;3755;59.316;18.092;2023-12-20T04:20:05;0.30;99.90
7427;DHT22;3755;59.316;18.092;2023-12-20T04:22:34;0.40;99.90
7427;DHT22;3755;59.316;18.092;2023-12-20T04:25:01;0.40;99.90
7427;DHT22;3755;59.316;18.092;2023-12-20T04:27:29;0.30;99.90
7427;DHT22;3755;59.316;18.092;2023-12-20T04:29:56;0.40;99.90
7427;DHT22;3755;59.316;18.092;2023-12-20T04:32:23;0.20;99.90
7427;DHT22;3755;59.316;18.092;2023-12-20T04:34:50;0.20;99.90
7427;DHT22;3755;59.316;18.092;2023-12-20T04:37:18;0.30;99.90
7427;DHT22;3755;59.316;18.092;2023-12-20T04:39:47;0.30;99.90
7427;DHT22;3755;59.316;18.092;2023-12-20T04:42:14;0.20;99.90
7427;DHT22;3755;59.316;18.092;2023-12-20T04:44:41;0.20;99.90
7427;DHT22;3755;59.316;18.092;2023-12-20T04:47:09;0.20;99.90
7427;DHT22;3755;59.316;18.092;2023-12-20T04:49:36;0.40;99.90
7427;DHT22;3755;59.316;18.092;2023-12-20T04:52:04;0.30;99.90
7427;DHT22;3755;59.316;18.092;2023-12-20T04:54:31;0.30;99.90
7427;DHT22;3755;59.316;18.092;2023-12-20T04:57:00;0.40;99.90
7427;DHT22;3755;59.316;18.092;2023-12-20T04:59:27;-0.30;99.90
7427;DHT22;3755;59.316;18.092;2023-12-20T05:01:54;0.40;99.90
7427;DHT22;3755;59.316;18.092;2023-12-20T05:04:23;0.20;99.90
7427;DHT22;3755;59.316;18.092;2023-12-20T05:06:50;0.20;99.90
7427;DHT22;3755;59.316;18.092;2023-12-20T05:09:17;0.20;99.90
7427;DHT22;3755;59.316;18.092;2023-12-20T05:11:44;0.10;99.90
7427;DHT22;3755;59.316;18.092;2023-12-20T05:14:16;0.20;99.90
7427;DHT22;3755;59.316;18.092;2023-12-20T05:16:43;0.10;99.90
7427;DHT22;3755;59.316;18.092;2023-12-20T05:19:11;0.10;99.90
7427;DHT22;3755;59.316;18.092;2023-12-20T05:21:38;0.10;99.90
7427;DHT22;3755;59.316;18.092;2023-12-20T05:24:05;0.10;99.90
7427;DHT22;3755;59.316;18.092;2023-12-20T05:26:32;0.10;99.90
7427;DHT22;3755;59.316;18.092;2023-12-20T05:28:59;0.40;99.90
7427;DHT22;3755;59.316;18.092;2023-12-20T05:31:28;0.00;99.90
7427;DHT22;3755;59.316;18.092;2023-12-20T05:33:55;0.00;99.90
7427;DHT22;3755;59.316;18.092;2023-12-20T05:36:22;0.50;99.90
7427;DHT22;3755;59.316;18.092;2023-12-20T05:38:53;0.00;99.90
7427;DHT22;3755;59.316;18.092;2023-12-20T05:41:20;0.00;99.90
7427;DHT22;3755;59.316;18.092;2023-12-20T05:43:49;0.00;99.90
7427;DHT22;3755;59.316;18.092;2023-12-20T05:46:16;0.00;99.90
7427;DHT22;3755;59.316;18.092;2023-12-20T05:48:45;0.00;99.90
7427;DHT22;3755;59.316;18.092;2023-12-20T05:51:12;0.10;99.90
7427;DHT22;3755;59.316;18.092;2023-12-20T05:53:40;0.10;99.90
7427;DHT22;3755;59.316;18.092;2023-12-20T05:56:21;0.40;99.90
7427;DHT22;3755;59.316;18.092;2023-12-20T05:58:56;0.10;99.90
7427;DHT22;3755;59.316;18.092;2023-12-20T06:01:29;0.10;99.90
7427;DHT22;3755;59.316;18.092;2023-12-20T06:30:08;0.50;99.90
7427;DHT22;3755;59.316;18.092;2023-12-20T06:32:37;0.60;99.90
7427;DHT22;3755;59.316;18.092;2023-12-20T06:35:23;0.60;99.90
7427;DHT22;3755;59.316;18.092;2023-12-20T06:38:08;0.60;99.90
7427;DHT22;3755;59.316;18.092;2023-12-20T06:40:49;0.60;99.90
7427;DHT22;3755;59.316;18.092;2023-12-20T06:43:18;1.20;99.90
7427;DHT22;3755;59.316;18.092;2023-12-20T06:52:11;1.10;99.90
7427;DHT22;3755;59.316;18.092;2023-12-20T06:54:52;0.60;99.90
7427;DHT22;3755;59.316;18.092;2023-12-20T06:57:20;0.70;99.90
7427;DHT22;3755;59.316;18.092;2023-12-20T07:00:02;0.80;99.90
7427;DHT22;3755;59.316;18.092;2023-12-20T07:02:47;0.70;99.90
7427;DHT22;3755;59.316;18.092;2023-12-20T07:08:11;0.70;99.90
7427;DHT22;3755;59.316;18.092;2023-12-20T07:10:40;0.70;99.90
7427;DHT22;3755;59.316;18.092;2023-12-20T07:13:19;0.70;99.90
7427;DHT22;3755;59.316;18.092;2023-12-20T07:15:50;0.80;99.90
7427;DHT22;3755;59.316;18.092;2023-12-20T07:19:02;0.90;99.90
7427;DHT22;3755;59.316;18.092;2023-12-20T07:21:43;0.90;99.90
7427;DHT22;3755;59.316;18.092;2023-12-20T07:24:22;0.90;99.90
7427;DHT22;3755;59.316;18.092;2023-12-20T07:26:55;0.90;99.90
7427;DHT22;3755;59.316;18.092;2023-12-20T07:32:52;1.00;99.90
7427;DHT22;3755;59.316;18.092;2023-12-20T07:39:25;1.80;99.90
7427;DHT22;3755;59.316;18.092;2023-12-20T07:52:12;1.00;99.90
7427;DHT22;3755;59.316;18.092;2023-12-20T07:55:05;1.00;99.90
7427;DHT22;3755;59.316;18.092;2023-12-20T07:58:08;1.10;99.90
7427;DHT22;3755;59.316;18.092;2023-12-20T09:51:14;1.90;99.90
7427;DHT22;3755;59.316;18.092;2023-12-20T09:56:58;2.00;99.90
7427;DHT22;3755;59.316;18.092;2023-12-20T10:00:08;1.90;99.90
7427;DHT22;3755;59.316;18.092;2023-12-20T10:03:10;1.90;99.90
7427;DHT22;3755;59.316;18.092;2023-12-20T10:16:07;2.10;99.90
7427;DHT22;3755;59.316;18.092;2023-12-20T10:21:45;2.10;99.90
7427;DHT22;3755;59.316;18.092;2023-12-20T10:24:34;2.10;99.90
7427;DHT22;3755;59.316;18.092;2023-12-20T10:27:35;2.20;99.90
7427;DHT22;3755;59.316;18.092;2023-12-20T10:30:19;2.30;99.90
7427;DHT22;3755;59.316;18.092;2023-12-20T11:46:55;2.20;99.90
7427;DHT22;3755;59.316;18.092;2023-12-20T11:49:41;2.20;99.90
7427;DHT22;3755;59.316;18.092;2023-12-20T11:52:24;2.20;99.90
7427;DHT22;3755;59.316;18.092;2023-12-20T11:55:07;2.70;99.90
7427;DHT22;3755;59.316;18.092;2023-12-20T11:58:09;2.20;99.90
7427;DHT22;3755;59.316;18.092;2023-12-20T12:00:55;2.30;99.90
7427;DHT22;3755;59.316;18.092;2023-12-20T12:56:14;2.10;99.90
7427;DHT22;3755;59.316;18.092;2023-12-20T12:58:59;1.90;99.90
7427;DHT22;3755;59.316;18.092;2023-12-20T13:01:40;1.90;99.90
7427;DHT22;3755;59.316;18.092;2023-12-20T13:04:26;2.00;99.90
7427;DHT22;3755;59.316;18.092;2023-12-20T13:07:07;1.90;99.90
7427;DHT22;3755;59.316;18.092;2023-12-20T13:09:48;2.00;99.90
7427;DHT22;3755;59.316;18.092;2023-12-20T13:12:35;1.90;99.90
7427;DHT22;3755;59.316;18.092;2023-12-20T13:15:16;1.90;99.90
7427;DHT22;3755;59.316;18.092;2023-12-20T13:18:08;2.00;99.90
7427;DHT22;3755;59.316;18.092;2023-12-20T13:20:50;1.90;99.90
7427;DHT22;3755;59.316;18.092;2023-12-20T13:23:33;2.10;99.90
7427;DHT22;3755;59.316;18.092;2023-12-20T13:26:05;2.00;99.90
7427;DHT22;3755;59.316;18.092;2023-12-20T13:35:07;2.10;99.90
7427;DHT22;3755;59.316;18.092;2023-12-20T13:37:49;2.10;99.90
7427;DHT22;3755;59.316;18.092;2023-12-20T13:40:31;2.20;99.90
7427;DHT22;3755;59.316;18.092;2023-12-20T13:43:13;2.20;99.90
7427;DHT22;3755;59.316;18.092;2023-12-20T13:46:01;2.30;99.90
7427;DHT22;3755;59.316;18.092;2023-12-20T14:01:57;2.40;99.90
7427;DHT22;3755;59.316;18.092;2023-12-20T14:04:39;2.40;99.90
7427;DHT22;3755;59.316;18.092;2023-12-20T14:07:11;2.40;99.90
7427;DHT22;3755;59.316;18.092;2023-12-20T14:09:53;2.40;99.90
7427;DHT22;3755;59.316;18.092;2023-12-20T14:15:35;2.50;99.90
7427;DHT22;3755;59.316;18.092;2023-12-20T14:28:09;2.60;99.90
7427;DHT22;3755;59.316;18.092;2023-12-20T14:30:48;2.60;99.90
7427;DHT22;3755;59.316;18.092;2023-12-20T14:33:31;2.60;99.90
7427;DHT22;3755;59.316;18.092;2023-12-20T14:36:35;2.60;99.90
7427;DHT22;3755;59.316;18.092;2023-12-20T14:39:19;2.70;99.90
7427;DHT22;3755;59.316;18.092;2023-12-20T14:41:49;2.70;99.90
7427;DHT22;3755;59.316;18.092;2023-12-20T15:16:39;2.90;99.90
7427;DHT22;3755;59.316;18.092;2023-12-20T15:19:10;2.90;99.90
7427;DHT22;3755;59.316;18.092;2023-12-20T15:21:57;2.90;99.90
7427;DHT22;3755;59.316;18.092;2023-12-20T15:24:52;3.00;99.90
7427;DHT22;3755;59.316;18.092;2023-12-20T15:27:56;3.00;99.90
7427;DHT22;3755;59.316;18.092;2023-12-20T15:30:57;3.00;99.90
7427;DHT22;3755;59.316;18.092;2023-12-20T17:03:56;2.60;99.90
7427;DHT22;3755;59.316;18.092;2023-12-20T17:06:41;2.60;99.90
7427;DHT22;3755;59.316;18.092;2023-12-20T17:09:39;2.60;99.90
7427;DHT22;3755;59.316;18.092;2023-12-20T17:12:21;2.70;99.90
7427;DHT22;3755;59.316;18.092;2023-12-20T17:15:07;2.60;99.90
7427;DHT22;3755;59.316;18.092;2023-12-20T17:17:50;2.60;99.90
7427;DHT22;3755;59.316;18.092;2023-12-20T17:20:58;2.70;99.90
7427;DHT22;3755;59.316;18.092;2023-12-20T17:23:50;2.70;99.90
7427;DHT22;3755;59.316;18.092;2023-12-20T17:26:31;2.70;99.90
7427;DHT22;3755;59.316;18.092;2023-12-20T17:29:12;2.70;99.90
7427;DHT22;3755;59.316;18.092;2023-12-20T17:32:15;2.60;99.90
7427;DHT22;3755;59.316;18.092;2023-12-20T17:35:00;2.50;99.90
7427;DHT22;3755;59.316;18.092;2023-12-20T18:25:26;1.60;99.90
7427;DHT22;3755;59.316;18.092;2023-12-20T18:28:13;2.40;99.90
7427;DHT22;3755;59.316;18.092;2023-12-20T18:30:54;2.40;99.90
7427;DHT22;3755;59.316;18.092;2023-12-20T18:33:39;2.40;99.90
7427;DHT22;3755;59.316;18.092;2023-12-20T18:36:29;2.40;99.90
7427;DHT22;3755;59.316;18.092;2023-12-20T18:39:11;2.40;99.90
7427;DHT22;3755;59.316;18.092;2023-12-20T18:48:34;2.20;99.90
7427;DHT22;3755;59.316;18.092;2023-12-20T18:51:16;2.30;99.90
7427;DHT22;3755;59.316;18.092;2023-12-20T18:53:58;2.30;99.90
7427;DHT22;3755;59.316;18.092;2023-12-20T18:56:30;2.30;99.90
7427;DHT22;3755;59.316;18.092;2023-12-20T18:59:22;2.30;99.90
7427;DHT22;3755;59.316;18.092;2023-12-20T19:02:10;2.30;99.90
7427;DHT22;3755;59.316;18.092;2023-12-20T19:17:39;2.40;99.90
7427;DHT22;3755;59.316;18.092;2023-12-20T19:20:21;2.40;99.90
7427;DHT22;3755;59.316;18.092;2023-12-20T19:23:03;2.50;99.90
7427;DHT22;3755;59.316;18.092;2023-12-20T19:25:44;2.50;99.90
7427;DHT22;3755;59.316;18.092;2023-12-20T19:28:12;2.40;99.90
7427;DHT22;3755;59.316;18.092;2023-12-20T19:30:54;2.30;99.90
7427;DHT22;3755;59.316;18.092;2023-12-20T19:33:39;2.30;99.90
7427;DHT22;3755;59.316;18.092;2023-12-20T19:36:21;2.30;99.90
7427;DHT22;3755;59.316;18.092;2023-12-20T19:39:04;2.30;99.90
7427;DHT22;3755;59.316;18.092;2023-12-20T19:41:53;2.80;99.90
7427;DHT22;3755;59.316;18.092;2023-12-20T19:44:35;2.20;99.90
7427;DHT22;3755;59.316;18.092;2023-12-20T19:47:47;2.20;99.90
7427;DHT22;3755;59.316;18.092;2023-12-20T19:53:50;2.20;99.90
7427;DHT22;3755;59.316;18.092;2023-12-20T19:56:33;2.20;99.90
7427;DHT22;3755;59.316;18.092;2023-12-20T19:59:03;2.20;99.90
7427;DHT22;3755;59.316;18.092;2023-12-20T20:01:33;2.20;99.90
7427;DHT22;3755;59.316;18.092;2023-12-20T20:04:05;2.20;99.90
7427;DHT22;3755;59.316;18.092;2023-12-20T20:06:36;2.20;99.90
7427;DHT22;3755;59.316;18.092;2023-12-20T20:09:14;2.20;99.90
7427;DHT22;3755;59.316;18.092;2023-12-20T20:11:42;2.20;99.90
7427;DHT22;3755;59.316;18.092;2023-12-20T20:14:12;2.20;99.90
7427;DHT22;3755;59.316;18.092;2023-12-20T20:16:39;2.30;99.90
7427;DHT22;3755;59.316;18.092;2023-12-20T20:19:08;2.20;99.90
7427;DHT22;3755;59.316;18.092;2023-12-20T20:21:35;2.20;99.90
7427;DHT22;3755;59.316;18.092;2023-12-20T20:24:08;2.20;99.90
7427;DHT22;3755;59.316;18.092;2023-12-20T20:26:37;2.20;99.90
7427;DHT22;3755;59.316;18.092;2023-12-20T20:29:07;2.20;99.90
7427;DHT22;3755;59.316;18.092;2023-12-20T20:31:37;2.50;99.90
7427;DHT22;3755;59.316;18.092;2023-12-20T20:34:06;2.20;99.90
7427;DHT22;3755;59.316;18.092;2023-12-20T20:36:34;2.20;99.90
7427;DHT22;3755;59.316;18.092;2023-12-20T20:39:02;2.20;99.90
7427;DHT22;3755;59.316;18.092;2023-12-20T20:41:31;2.20;99.90
7427;DHT22;3755;59.316;18.092;2023-12-20T20:44:02;2.20;99.90
7427;DHT22;3755;59.316;18.092;2023-12-20T20:46:31;2.30;99.90
7427;DHT22;3755;59.316;18.092;2023-12-20T20:49:01;2.30;99.90
7427;DHT22;3755;59.316;18.092;2023-12-20T20:51:32;2.30;99.90
7427;DHT22;3755;59.316;18.092;2023-12-20T20:54:06;2.50;99.90
7427;DHT22;3755;59.316;18.092;2023-12-20T20:56:34;2.20;99.90
7427;DHT22;3755;59.316;18.092;2023-12-20T20:59:19;2.30;99.90
7427;DHT22;3755;59.316;18.092;2023-12-20T21:02:01;2.30;99.90
7427;DHT22;3755;59.316;18.092;2023-12-20T21:04:30;2.30;99.90
7427;DHT22;3755;59.316;18.092;2023-12-20T21:06:59;2.30;99.90
7427;DHT22;3755;59.316;18.092;2023-12-20T21:09:27;2.30;99.90
7427;DHT22;3755;59.316;18.092;2023-12-20T21:12:13;2.30;99.90
7427;DHT22;3755;59.316;18.092;2023-12-20T21:17:58;2.40;99.90
7427;DHT22;3755;59.316;18.092;2023-12-20T21:20:32;2.40;99.90
7427;DHT22;3755;59.316;18.092;2023-12-20T21:23:04;2.40;99.90
7427;DHT22;3755;59.316;18.092;2023-12-20T21:25:36;2.40;99.90
7427;DHT22;3755;59.316;18.092;2023-12-20T21:28:05;2.40;99.90
7427;DHT22;3755;59.316;18.092;2023-12-20T21:30:46;2.40;99.90
7427;DHT22;3755;59.316;18.092;2023-12-20T21:33:47;2.40;99.90
7427;DHT22;3755;59.316;18.092;2023-12-20T21:36:30;2.40;99.90
7427;DHT22;3755;59.316;18.092;2023-12-20T21:39:19;2.30;99.90
7427;DHT22;3755;59.316;18.092;2023-12-20T21:42:02;2.30;99.90
7427;DHT22;3755;59.316;18.092;2023-12-20T21:44:43;2.30;99.90
7427;DHT22;3755;59.316;18.092;2023-12-20T21:47:25;2.30;99.90
7427;DHT22;3755;59.316;18.092;2023-12-20T21:50:32;2.20;99.90
7427;DHT22;3755;59.316;18.092;2023-12-20T21:53:14;2.30;99.90
7427;DHT22;3755;59.316;18.092;2023-12-20T21:55:55;2.30;99.90
7427;DHT22;3755;59.316;18.092;2023-12-20T21:58:36;2.30;99.90
7427;DHT22;3755;59.316;18.092;2023-12-20T22:01:05;2.30;99.90
7427;DHT22;3755;59.316;18.092;2023-12-20T22:03:48;2.50;99.90
7427;DHT22;3755;59.316;18.092;2023-12-20T22:15:59;2.30;99.90
7427;DHT22;3755;59.316;18.092;2023-12-20T22:18:41;2.50;99.90
7427;DHT22;3755;59.316;18.092;2023-12-20T22:21:09;2.30;99.90
7427;DHT22;3755;59.316;18.092;2023-12-20T22:23:43;2.10;99.90
7427;DHT22;3755;59.316;18.092;2023-12-20T22:26:12;2.00;99.90
7427;DHT22;3755;59.316;18.092;2023-12-20T22:28:42;2.00;99.90
7427;DHT22;3755;59.316;18.092;2023-12-20T22:31:12;2.10;99.90
7427;DHT22;3755;59.316;18.092;2023-12-20T22:33:53;2.00;99.90
7427;DHT22;3755;59.316;18.092;2023-12-20T22:47:23;2.00;99.90
7427;DHT22;3755;59.316;18.092;2023-12-20T22:50:05;2.00;99.90
7427;DHT22;3755;59.316;18.092;2023-12-20T22:52:52;2.00;99.90
7427;DHT22;3755;59.316;18.092;2023-12-20T22:55:33;1.90;99.90
7427;DHT22;3755;59.316;18.092;2023-12-20T22:58:14;1.90;99.90
7427;DHT22;3755;59.316;18.092;2023-12-20T23:00:41;1.90;99.90
7427;DHT22;3755;59.316;18.092;2023-12-20T23:03:10;2.00;99.90
7427;DHT22;3755;59.316;18.092;2023-12-20T23:05:37;2.00;99.90
7427;DHT22;3755;59.316;18.092;2023-12-20T23:08:05;1.90;99.90
7427;DHT22;3755;59.316;18.092;2023-12-20T23:10:33;1.90;99.90
7427;DHT22;3755;59.316;18.092;2023-12-20T23:13:00;1.90;99.90
7427;DHT22;3755;59.316;18.092;2023-12-20T23:15:27;1.90;99.90
7427;DHT22;3755;59.316;18.092;2023-12-20T23:17:54;1.90;99.90
7427;DHT22;3755;59.316;18.092;2023-12-20T23:20:25;1.90;99.90
7427;DHT22;3755;59.316;18.092;2023-12-20T23:22:52;1.90;99.90
7427;DHT22;3755;59.316;18.092;2023-12-20T23:25:19;1.90;99.90
7427;DHT22;3755;59.316;18.092;2023-12-20T23:27:46;1.90;99.90
7427;DHT22;3755;59.316;18.092;2023-12-20T23:30:17;1.90;99.90
7427;DHT22;3755;59.316;18.092;2023-12-20T23:32:44;1.90;99.90
7427;DHT22;3755;59.316;18.092;2023-12-20T23:35:11;1.90;99.90
7427;DHT22;3755;59.316;18.092;2023-12-20T23:37:41;1.80;99.90
7427;DHT22;3755;59.316;18.092;2023-12-20T23:40:09;1.80;99.90
7427;DHT22;3755;59.316;18.092;2023-12-20T23:42:36;1.80;99.90
7427;DHT22;3755;59.316;18.092;2023-12-20T23:45:04;1.70;99.90
7427;DHT22;3755;59.316;18.092;2023-12-20T23:47:31;1.70;99.90
7427;DHT22;3755;59.316;18.092;2023-12-20T23:49:58;1.70;99.90
7427;DHT22;3755;59.316;18.092;2023-12-20T23:52:25;1.70;99.90
7427;DHT22;3755;59.316;18.092;2023-12-20T23:54:54;1.70;99.90
7427;DHT22;3755;59.316;18.092;2023-12-20T23:57:21;1.70;99.90
7427;DHT22;3755;59.316;18.092;2023-12-20T23:59:49;1.70;99.90
